地図

経路データ

SID SEASON NUMBER BASIN SUBBASIN NAME ISO_TIME NATURE LAT LON WMO_WIND WMO_PRES WMO_AGENCY TRACK_TYPE DIST2LAND LANDFALL IFLAG USA_AGENCY USA_ATCF_ID USA_LAT USA_LON USA_RECORD USA_STATUS USA_WIND USA_PRES USA_SSHS USA_R34_NE USA_R34_SE USA_R34_SW USA_R34_NW USA_R50_NE USA_R50_SE USA_R50_SW USA_R50_NW USA_R64_NE USA_R64_SE USA_R64_SW USA_R64_NW USA_POCI USA_ROCI USA_RMW USA_EYE TOKYO_LAT TOKYO_LON TOKYO_GRADE TOKYO_WIND TOKYO_PRES TOKYO_R50_DIR TOKYO_R50_LONG TOKYO_R50_SHORT TOKYO_R30_DIR TOKYO_R30_LONG TOKYO_R30_SHORT TOKYO_LAND CMA_LAT CMA_LON CMA_CAT CMA_WIND CMA_PRES HKO_LAT HKO_LON HKO_CAT HKO_WIND HKO_PRES NEWDELHI_LAT NEWDELHI_LON NEWDELHI_GRADE NEWDELHI_WIND NEWDELHI_PRES NEWDELHI_CI NEWDELHI_DP NEWDELHI_POCI REUNION_LAT REUNION_LON REUNION_TYPE REUNION_WIND REUNION_PRES REUNION_TNUM REUNION_CI REUNION_RMW REUNION_R34_NE REUNION_R34_SE REUNION_R34_SW REUNION_R34_NW REUNION_R50_NE REUNION_R50_SE REUNION_R50_SW REUNION_R50_NW REUNION_R64_NE REUNION_R64_SE REUNION_R64_SW REUNION_R64_NW BOM_LAT BOM_LON BOM_TYPE BOM_WIND BOM_PRES BOM_TNUM BOM_CI BOM_RMW BOM_R34_NE BOM_R34_SE BOM_R34_SW BOM_R34_NW BOM_R50_NE BOM_R50_SE BOM_R50_SW BOM_R50_NW BOM_R64_NE BOM_R64_SE BOM_R64_SW BOM_R64_NW BOM_ROCI BOM_POCI BOM_EYE BOM_POS_METHOD BOM_PRES_METHOD NADI_LAT NADI_LON NADI_CAT NADI_WIND NADI_PRES WELLINGTON_LAT WELLINGTON_LON WELLINGTON_WIND WELLINGTON_PRES DS824_LAT DS824_LON DS824_STAGE DS824_WIND DS824_PRES TD9636_LAT TD9636_LON TD9636_STAGE TD9636_WIND TD9636_PRES TD9635_LAT TD9635_LON TD9635_WIND TD9635_PRES TD9635_ROCI NEUMANN_LAT NEUMANN_LON NEUMANN_CLASS NEUMANN_WIND NEUMANN_PRES MLC_LAT MLC_LON MLC_CLASS MLC_WIND MLC_PRES USA_GUST BOM_GUST BOM_GUST_PER REUNION_GUST REUNION_GUST_PER USA_SEAHGT USA_SEARAD_NE USA_SEARAD_SE USA_SEARAD_SW USA_SEARAD_NW STORM_SPEED STORM_DIR
1875277N19297 1875 13 NA CS NOT_NAMED 1875-10-04 06:00:00 TS 18.8000 -63.2000 main 256 207 _____________O -1 18.8000 -63.2000 TD 30 10 288
1875277N19297 1875 13 NA CS NOT_NAMED 1875-10-04 09:00:00 TS 18.9503 -63.6998 main 211 166 _____________P -1 18.9503 -63.6998 TD 30 10 288
1875277N19297 1875 13 NA NA NOT_NAMED 1875-10-04 12:00:00 TS 19.1000 -64.2000 main 166 130 _____________O -1 19.1000 -64.2000 TD 30 10 288
1875277N19297 1875 13 NA NA NOT_NAMED 1875-10-04 15:00:00 TS 19.2499 -64.7001 main 130 118 _____________P -1 19.2499 -64.7001 TD 30 10 288
1875277N19297 1875 13 NA NA NOT_NAMED 1875-10-04 18:00:00 TS 19.4000 -65.2000 main 119 116 _____________O -1 19.4000 -65.2000 TD 30 10 288
1875277N19297 1875 13 NA NA NOT_NAMED 1875-10-04 21:00:00 TS 19.5574 -65.7000 main 134 134 _____________P -1 19.5574 -65.7000 TD 30 10 288
1875277N19297 1875 13 NA NA NOT_NAMED 1875-10-05 00:00:00 TS 19.7000 -66.2000 main 145 145 _____________O -1 19.7000 -66.2000 TD 30 10 283
1875277N19297 1875 13 NA NA NOT_NAMED 1875-10-05 03:00:00 TS 19.7698 -66.6930 main 156 156 _____________P -1 19.7698 -66.6930 TD 32 10 282
1875277N19297 1875 13 NA NA NOT_NAMED 1875-10-05 06:00:00 TS 19.9000 -67.2000 main 167 167 _____________O -1 19.9000 -67.2000 TS 35 11 294
1875277N19297 1875 13 NA NA NOT_NAMED 1875-10-05 09:00:00 TS 20.2200 -67.7497 main 182 175 _____________P -1 20.2200 -67.7497 TS 37 13 304
1875277N19297 1875 13 NA NA NOT_NAMED 1875-10-05 12:00:00 TS 20.6000 -68.3000 main 179 173 _____________O -1 20.6000 -68.3000 TS 40 12 304
1875277N19297 1875 13 NA NA NOT_NAMED 1875-10-05 15:00:00 TS 20.8999 -68.8228 main 186 182 _____________P -1 20.8999 -68.8228 TS 42 11 303
1875277N19297 1875 13 NA NA NOT_NAMED 1875-10-05 18:00:00 TS 21.2000 -69.3000 main 193 189 _____________O -1 21.2000 -69.3000 TS 45 11 307
1875277N19297 1875 13 NA NA NOT_NAMED 1875-10-05 21:00:00 TS 21.5499 -69.7375 main 211 211 _____________P -1 21.5499 -69.7375 TS 50 10 313
1875277N19297 1875 13 NA NA NOT_NAMED 1875-10-06 00:00:00 TS 21.9000 -70.1000 main 240 240 _____________O -1 21.9000 -70.1000 TS 55 9 317
1875277N19297 1875 13 NA NA NOT_NAMED 1875-10-06 03:00:00 TS 22.1924 -70.3878 main 269 269 _____________P -1 22.1924 -70.3878 TS 57 8 322
1875277N19297 1875 13 NA NA NOT_NAMED 1875-10-06 06:00:00 TS 22.5000 -70.6000 main 287 284 _____________O -1 22.5000 -70.6000 TS 60 8 332
1875277N19297 1875 13 NA NA NOT_NAMED 1875-10-06 09:00:00 TS 22.8850 -70.7800 main 295 295 _____________P -1 22.8850 -70.7800 TS 62 9 341
1875277N19297 1875 13 NA NA NOT_NAMED 1875-10-06 12:00:00 TS 23.3000 -70.9000 main 319 319 _____________O -1 23.3000 -70.9000 HU 65 8 347
1875277N19297 1875 13 NA NA NOT_NAMED 1875-10-06 15:00:00 TS 23.7000 -70.9875 main 346 346 _____________P -1 23.7000 -70.9875 HU 65 8 354
1875277N19297 1875 13 NA NA NOT_NAMED 1875-10-06 18:00:00 TS 24.1000 -71.0000 main 383 383 _____________O -1 24.1000 -71.0000 HU 65 8 3
1875277N19297 1875 13 NA NA NOT_NAMED 1875-10-06 21:00:00 TS 24.4999 -70.9449 main 426 426 _____________P -1 24.4999 -70.9449 HU 65 8 13
1875277N19297 1875 13 NA NA NOT_NAMED 1875-10-07 00:00:00 TS 24.9000 -70.8000 main 470 470 _____________O -1 24.9000 -70.8000 HU 65 9 23
1875277N19297 1875 13 NA NA NOT_NAMED 1875-10-07 03:00:00 TS 25.2925 -70.5799 main 519 519 _____________P -1 25.2925 -70.5799 HU 65 9 30
1875277N19297 1875 13 NA NA NOT_NAMED 1875-10-07 06:00:00 TS 25.7000 -70.3000 main 573 573 _____________O -1 25.7000 -70.3000 HU 65 10 31
1875277N19297 1875 13 NA NA NOT_NAMED 1875-10-07 09:00:00 TS 26.1349 -70.0147 main 626 626 _____________P -1 26.1349 -70.0147 HU 65 11 31
1875277N19297 1875 13 NA NA NOT_NAMED 1875-10-07 12:00:00 TS 26.6000 -69.7000 main 690 690 _____________O -1 26.6000 -69.7000 HU 65 11 31
1875277N19297 1875 13 NA NA NOT_NAMED 1875-10-07 15:00:00 TS 27.0923 -69.3795 main 753 753 _____________P -1 27.0923 -69.3795 HU 65 12 32
1875277N19297 1875 13 NA NA NOT_NAMED 1875-10-07 18:00:00 TS 27.6000 -69.0000 main 821 821 _____________O -1 27.6000 -69.0000 HU 65 13 37
1875277N19297 1875 13 NA NA NOT_NAMED 1875-10-07 21:00:00 TS 28.1001 -68.5149 main 894 894 _____________P -1 28.1001 -68.5149 HU 65 13 41
1875277N19297 1875 13 NA NA NOT_NAMED 1875-10-08 00:00:00 TS 28.6000 -68.0000 main 967 967 _____________O -1 28.6000 -68.0000 HU 65 13 40
1875277N19297 1875 13 NA NA NOT_NAMED 1875-10-08 03:00:00 TS 29.0997 -67.5493 main 1041 1041 _____________P -1 29.0997 -67.5493 HU 65 13 38
1875277N19297 1875 13 NA NA NOT_NAMED 1875-10-08 06:00:00 TS 29.6000 -67.1000 main 1044 1043 _____________O -1 29.6000 -67.1000 HU 65 13 40
1875277N19297 1875 13 NA NA NOT_NAMED 1875-10-08 09:00:00 TS 30.1000 -66.5997 main 1043 1043 _____________P -1 30.1000 -66.5997 HU 65 13 41
1875277N19297 1875 13 NA NA NOT_NAMED 1875-10-08 12:00:00 TS 30.6000 -66.1000 main 1047 1045 _____________O -1 30.6000 -66.1000 HU 65 13 39
1875277N19297 1875 13 NA NA NOT_NAMED 1875-10-08 15:00:00 TS 31.0997 -65.6493 main 1055 1049 _____________P -1 31.0997 -65.6493 HU 65 13 38
1875277N19297 1875 13 NA NA NOT_NAMED 1875-10-08 18:00:00 TS 31.6000 -65.2000 main 1059 1059 _____________O -1 31.6000 -65.2000 HU 65 13 38
1875277N19297 1875 13 NA NA NOT_NAMED 1875-10-08 21:00:00 TS 32.1149 -64.7073 main 1075 1070 _____________P -1 32.1149 -64.7073 HU 65 13 40
1875277N19297 1875 13 NA NA NOT_NAMED 1875-10-09 00:00:00 TS 32.6000 -64.2000 main 1095 1095 _____________O -1 32.6000 -64.2000 HU 65 12 44
1875277N19297 1875 13 NA NA NOT_NAMED 1875-10-09 03:00:00 TS 33.0075 -63.6844 main 1116 1095 _____________P -1 33.0075 -63.6844 HU 65 12 46
1875277N19297 1875 13 NA NA NOT_NAMED 1875-10-09 06:00:00 TS 33.4000 -63.2000 main 1100 1081 _____________O -1 33.4000 -63.2000 HU 65 11 42
1875277N19297 1875 13 NA NA NOT_NAMED 1875-10-09 09:00:00 TS 33.8423 -62.7697 main 1081 1054 _____________P -1 33.8423 -62.7697 HU 65 11 36
1875277N19297 1875 13 NA NA NOT_NAMED 1875-10-09 12:00:00 TS 34.3000 -62.4000 main 1054 1015 _____________O -1 34.3000 -62.4000 HU 65 11 32
1875277N19297 1875 13 NA NA NOT_NAMED 1875-10-09 15:00:00 TS 34.7498 -62.0844 main 1017 971 _____________P -1 34.7498 -62.0844 HU 65 10 29
1875277N19297 1875 13 NA NA NOT_NAMED 1875-10-09 18:00:00 TS 35.2000 -61.8000 main 971 937 _____________O -1 35.2000 -61.8000 HU 65 10 29
1875277N19297 1875 13 NA NA NOT_NAMED 1875-10-09 21:00:00 TS 35.6501 -61.4702 main 926 894 _____________P -1 35.6501 -61.4702 HU 65 10 28
1875277N19297 1875 13 NA NA NOT_NAMED 1875-10-10 00:00:00 TS 36.1000 -61.2000 main 894 866 _____________O -1 36.1000 -61.2000 HU 65 9 21
1875277N19297 1875 13 NA NA NOT_NAMED 1875-10-10 03:00:00 TS 36.4673 -61.0836 main 856 809 _____________P -1 36.4673 -61.0836 HU 67 9 10
1875277N19297 1875 13 NA NA NOT_NAMED 1875-10-10 06:00:00 ET 37.0000 -61.0000 main 809 728 _____________O -1 37.0000 -61.0000 EX 70 15 9
1875277N19297 1875 13 NA NA NOT_NAMED 1875-10-10 09:00:00 ET 37.9177 -60.7867 main 728 644 _____________P -1 37.9177 -60.7867 EX 70 20 9
1875277N19297 1875 13 NA NA NOT_NAMED 1875-10-10 12:00:00 ET 39.0000 -60.6000 main 635 555 _____________O -1 39.0000 -60.6000 EX 70 21 5
1875277N19297 1875 13 NA NA NOT_NAMED 1875-10-10 15:00:00 ET 39.9999 -60.5544 main 546 458 _____________P -1 39.9999 -60.5544 EX 70 20 0
1875277N19297 1875 13 NA NA NOT_NAMED 1875-10-10 18:00:00 ET 41.0000 -60.6000 main 448 356 _____________O -1 41.0000 -60.6000 EX 70 20 358
1875277N19297 1875 13 NA NA NOT_NAMED 1875-10-10 21:00:00 ET 41.9996 -60.6275 main 346 249 _____________P -1 41.9996 -60.6275 EX 70 20 356
1875277N19297 1875 13 NA NA NOT_NAMED 1875-10-11 00:00:00 ET 43.0000 -60.8000 main 238 134 _____________O -1 43.0000 -60.8000 EX 70 20 348
1875277N19297 1875 13 NA NA NOT_NAMED 1875-10-11 03:00:00 ET 44.0009 -61.2193 main 124 13 _____________P -1 44.0009 -61.2193 EX 70 21 340
1875277N19297 1875 13 NA NA NOT_NAMED 1875-10-11 06:00:00 ET 45.0000 -61.8000 main 7 _____________O -1 45.0000 -61.8000 EX 70 22 338

IBTrACS Databaseについて

本データベースは、米国NOAAが公開する1842年以降の世界の熱帯低気圧のベストトラックデータアーカイブInternational Best Track Archive for Climate Stewardship (IBTrACS)を、ウェブで閲覧しやすい形式に変換したものです。

最終更新日:2021-10-08